Terminal Aerodrome Forecast
Issued by NWS Boston, MA

Home | Current Version | Previous Version | Text Only | Print | Product List | Glossary On
Versions: 1 2 3 4 5 6 7 8 9 10 11 12 13 14 15 16 17 18 19 20 21 22 23 24 25 26 27 28 29 30 31 32 33 34 35 36 37 38 39 40 41 42 43 44 45
000
FTUS41 KBOX 181501 AAB
TAFBOS
TAF AMD
KBOS 181501Z 1815/1918 VRB03KT P6SM VCSH OVC025
     FM181700 VRB03KT P6SM VCSH OVC020
     FM190000 22005KT 2SM BR OVC015
     FM190300 24006KT P6SM OVC010
     FM190500 24006KT P6SM OVC035
     FM191500 25009KT P6SM SCT140=

USA.gov is the U.S. government's official web portal to all federal, state and local government web resources and services.